Time;durP1;ratioP1;P1;durP2;ratioP2;P2;SDS_P1;SDS_P2;PMS_P1;PMS_P2;Temp;Humidity;BMP_temperature;BMP_pressure;BME280_temperature;BME280_humidity;BME280_pressure;Samples;Min_cycle;Max_cycle;Signal;HPM_P1;HPM_P2
2021/10/10 00:01:47;;;;;;;53.23;27.15;;;;;;;1.93;76.87;100432.31;4304364;80;21059;-84
2021/10/10 00:07:48;;;;;;;62.25;31.20;;;;;;;1.77;77.34;100424.85;4306881;80;21032;-84
2021/10/10 00:13:50;;;;;;;52.95;28.25;;;;;;;1.88;78.05;100420.98;4302666;80;21032;-85
2021/10/10 00:19:51;;;;;;;63.38;29.75;;;;;;;1.97;78.34;100423.35;4301446;80;21036;-84
2021/10/10 00:25:52;;;;;;;50.05;24.57;;;;;;;1.98;77.96;100424.95;4289516;80;21615;-84
2021/10/10 00:31:53;;;;;;;57.53;29.48;;;;;;;1.96;78.04;100433.09;4314076;80;21102;-84
2021/10/10 00:37:54;;;;;;;58.63;28.60;;;;;;;1.86;78.25;100427.77;4344378;80;21019;-84
2021/10/10 00:43:56;;;;;;;58.02;28.42;;;;;;;1.71;78.54;100423.85;4357555;80;21095;-83
2021/10/10 00:49:57;;;;;;;54.25;28.20;;;;;;;1.53;78.22;100417.23;4352547;80;21140;-84
2021/10/10 00:55:59;;;;;;;65.80;31.27;;;;;;;1.55;78.86;100411.02;4364525;80;21028;-84
2021/10/10 01:02:01;;;;;;;61.98;29.50;;;;;;;1.68;79.26;100403.61;4351863;80;21574;-84
2021/10/10 01:08:03;;;;;;;60.65;29.18;;;;;;;1.68;79.26;100403.61;4356264;80;22081;-84
2021/10/10 01:14:05;;;;;;;56.40;28.00;;;;;;;1.73;79.49;100402.22;4357423;80;21472;-85
2021/10/10 01:20:10;;;;;;;56.40;28.57;;;;;;;1.75;79.39;100402.75;4357125;80;21086;-85
2021/10/10 01:26:11;;;;;;;64.20;27.65;;;;;;;1.73;79.09;100399.52;4355817;80;21000;-85
2021/10/10 01:32:12;;;;;;;52.53;26.57;;;;;;;1.57;79.42;100389.39;4342227;80;21075;-84
2021/10/10 01:38:18;;;;;;;46.85;25.30;;;;;;;1.63;79.79;100389.36;4308078;80;21045;-84
2021/10/10 01:44:23;;;;;;;54.08;27.30;;;;;;;1.72;79.76;100382.26;4307271;80;21042;-85
2021/10/10 01:50:26;;;;;;;48.05;25.62;;;;;;;1.64;79.85;100378.28;4304009;80;21074;-84
2021/10/10 01:56:28;;;;;;;44.85;22.93;;;;;;;1.56;80.08;100377.00;4310766;80;21506;-84
2021/10/10 02:02:33;;;;;;;52.35;25.02;;;;;;;1.58;80.49;100372.10;4313190;80;20993;-83
2021/10/10 02:08:34;;;;;;;53.38;27.77;;;;;;;1.70;80.48;100369.05;4320554;80;21519;-83
2021/10/10 02:14:36;;;;;;;53.45;26.20;;;;;;;1.78;80.44;100370.32;4312641;80;21122;-84
2021/10/10 02:20:37;;;;;;;55.78;26.85;;;;;;;1.67;79.61;100370.15;4309013;80;21138;-84
2021/10/10 02:26:41;;;;;;;52.85;24.95;;;;;;;1.49;79.75;100373.80;4304400;80;21609;-83
2021/10/10 02:33:21;;;;;;;55.40;26.00;;;;;;;1.38;79.65;100372.80;4321816;80;21493;-83
2021/10/10 02:39:22;;;;;;;49.15;25.32;;;;;;;1.21;79.75;100368.34;4343743;80;21071;-82
2021/10/10 02:45:38;;;;;;;52.73;26.57;;;;;;;1.11;80.13;100373.27;4358030;80;21090;-82
2021/10/10 02:51:39;;;;;;;44.57;22.60;;;;;;;1.08;80.06;100377.87;4342538;80;21095;-82
2021/10/10 02:57:40;;;;;;;55.78;27.02;;;;;;;0.92;80.26;100372.33;4355176;80;21042;-82
2021/10/10 03:03:50;;;;;;;55.12;26.68;;;;;;;0.92;80.26;100372.33;4341479;80;21643;-83
2021/10/10 03:09:58;;;;;;;56.02;28.02;;;;;;;0.76;80.12;100369.44;4349267;80;21523;-83
2021/10/10 03:16:00;;;;;;;47.05;25.68;;;;;;;0.60;80.26;100365.73;4355503;80;21012;-82
2021/10/10 03:22:13;;;;;;;50.50;26.02;;;;;;;0.41;80.73;100350.72;4335953;80;21049;-83
2021/10/10 03:28:14;;;;;;;48.68;25.82;;;;;;;0.41;80.73;100350.72;4340620;80;20989;-83
2021/10/10 03:34:17;;;;;;;48.95;24.20;;;;;;;0.25;80.98;100333.00;4329605;80;21588;-83
2021/10/10 03:40:31;;;;;;;49.23;25.48;;;;;;;0.25;80.98;100333.00;4298793;80;21016;-83
2021/10/10 03:46:32;;;;;;;49.85;25.70;;;;;;;0.43;81.36;100341.84;4299983;80;21027;-83
2021/10/10 03:52:34;;;;;;;49.05;24.57;;;;;;;0.49;81.75;100334.52;4299430;80;21543;-82
2021/10/10 03:58:42;;;;;;;49.20;24.23;;;;;;;0.55;81.54;100338.27;4295140;80;21004;-82
2021/10/10 04:04:43;;;;;;;53.75;26.62;;;;;;;0.59;81.57;100332.61;4328526;80;21039;-82
2021/10/10 04:10:44;;;;;;;49.53;25.02;;;;;;;0.50;81.68;100326.72;4330020;80;21011;-83
2021/10/10 04:16:45;;;;;;;53.80;25.15;;;;;;;0.50;81.68;100326.72;4330537;80;39384;-83
2021/10/10 04:22:47;;;;;;;47.53;24.32;;;;;;;0.48;81.81;100328.34;4345753;80;21040;-83
2021/10/10 04:28:49;;;;;;;52.70;26.17;;;;;;;0.46;82.05;100325.65;4345146;80;21110;-82
2021/10/10 04:34:50;;;;;;;45.38;24.18;;;;;;;0.54;82.29;100321.85;4342057;80;21045;-82
2021/10/10 04:40:56;;;;;;;59.50;26.37;;;;;;;0.49;81.95;100325.91;4332816;80;21086;-82
2021/10/10 04:46:57;;;;;;;53.55;24.92;;;;;;;0.37;82.14;100324.63;4339761;80;21510;-82
2021/10/10 04:52:59;;;;;;;51.33;26.68;;;;;;;0.31;81.99;100315.77;4348545;80;21050;-83
2021/10/10 04:59:04;;;;;;;49.03;26.45;;;;;;;0.28;82.38;100319.02;4352510;80;21046;-82
2021/10/10 05:05:06;;;;;;;53.05;26.20;;;;;;;0.26;82.43;100317.12;4315826;80;21097;-82
2021/10/10 05:11:07;;;;;;;51.50;26.33;;;;;;;0.27;82.54;100321.98;4329243;80;22189;-83
2021/10/10 05:17:09;;;;;;;48.70;25.30;;;;;;;0.32;82.88;100326.80;4324916;80;21090;-82
2021/10/10 05:23:14;;;;;;;54.60;25.43;;;;;;;0.30;82.54;100325.47;4307895;80;21068;-83
2021/10/10 05:29:22;;;;;;;55.00;25.45;;;;;;;0.26;82.61;100325.20;4315300;80;21008;-82
2021/10/10 05:35:23;;;;;;;52.90;25.45;;;;;;;0.32;83.28;100324.63;4332453;80;21019;-83
2021/10/10 05:41:26;;;;;;;54.88;25.50;;;;;;;0.47;83.33;100325.94;4332827;80;21054;-83
2021/10/10 05:47:27;;;;;;;58.35;26.05;;;;;;;0.55;83.10;100331.53;4332849;80;21006;-83
2021/10/10 05:53:41;;;;;;;53.63;26.45;;;;;;;0.58;83.51;100335.02;4328375;80;22021;-83
2021/10/10 05:59:51;;;;;;;51.65;25.43;;;;;;;0.62;83.04;100341.48;4334761;80;21561;-82
2021/10/10 06:05:51;;;;;;;52.88;26.40;;;;;;;0.64;83.14;100333.12;4230709;82;34188;-82
2021/10/10 06:11:54;;;;;;;49.20;26.10;;;;;;;1.11;83.79;100330.67;4211653;82;21054;-84
2021/10/10 06:18:10;;;;;;;52.15;26.93;;;;;;;1.11;83.79;100330.67;4184536;82;21077;-84
2021/10/10 06:24:12;;;;;;;;;;;;;;;1.35;83.70;100335.06;4218771;82;21073;-84
2021/10/10 06:30:13;;;;;;;55.75;26.60;;;;;;;1.43;83.59;100334.46;4235448;82;21158;-85
2021/10/10 06:36:19;;;;;;;48.68;24.60;;;;;;;1.47;83.80;100315.25;4211641;82;21138;-85
2021/10/10 06:42:18;;;;;;;51.50;25.70;;;;;;;1.69;83.77;100302.66;4208715;82;21036;-86
2021/10/10 06:48:19;;;;;;;43.30;24.12;;;;;;;2.19;83.86;100321.56;4209402;82;22146;-83
2021/10/10 06:54:21;;;;;;;52.67;25.05;;;;;;;2.36;83.48;100321.36;4202611;82;21006;-84
2021/10/10 07:00:22;;;;;;;47.23;25.20;;;;;;;2.68;83.55;100321.46;4203958;82;21109;-83
2021/10/10 07:06:25;;;;;;;49.27;25.45;;;;;;;3.00;83.32;100318.04;4204194;82;21562;-85
2021/10/10 07:12:26;;;;;;;45.78;23.15;;;;;;;3.21;83.19;100311.23;4203913;82;21101;-83
2021/10/10 07:18:36;;;;;;;45.45;24.00;;;;;;;3.60;83.26;100321.14;4202606;82;20985;-83
2021/10/10 07:30:51;;;;;;;49.98;26.07;;;;;;;4.26;82.48;100308.53;4199201;82;21045;-82
2021/10/10 07:36:52;;;;;;;44.85;25.25;;;;;;;4.44;82.17;100307.06;4200511;82;21657;-82
2021/10/10 07:42:53;;;;;;;45.85;25.43;;;;;;;4.59;82.04;100298.59;4209787;82;21594;-81
2021/10/10 07:48:56;;;;;;;47.08;25.20;;;;;;;4.75;81.83;100293.09;4218522;82;20979;-81
2021/10/10 07:54:57;;;;;;;53.40;25.00;;;;;;;5.05;81.56;100309.77;4217615;82;21542;-82
2021/10/10 08:00:59;;;;;;;48.38;24.85;;;;;;;5.30;81.14;100310.53;4224948;82;22329;-81
2021/10/10 08:07:00;;;;;;;47.25;24.52;;;;;;;5.59;81.31;100314.41;4217939;82;21105;-81
2021/10/10 08:13:02;;;;;;;47.43;25.23;;;;;;;5.72;81.07;100309.47;4219076;82;21026;-81
2021/10/10 08:19:03;;;;;;;48.48;24.55;;;;;;;6.11;80.81;100310.89;4229308;82;21109;-81
2021/10/10 08:25:09;;;;;;;49.60;25.85;;;;;;;6.36;80.19;100303.94;4234357;82;21089;-81
2021/10/10 08:31:10;;;;;;;42.73;24.10;;;;;;;6.17;79.43;100304.19;4212385;83;21034;-82
2021/10/10 08:37:11;;;;;;;48.10;24.65;;;;;;;6.13;79.71;100305.95;4204521;82;21093;-81
2021/10/10 08:43:17;;;;;;;46.75;24.82;;;;;;;6.14;79.57;100291.78;4196075;82;21039;-81
2021/10/10 08:49:17;;;;;;;42.27;23.57;;;;;;;6.56;79.73;100288.41;4204226;82;21050;-81
2021/10/10 08:55:19;;;;;;;49.00;24.70;;;;;;;7.56;79.42;100272.14;4202520;82;21007;-81
2021/10/10 09:01:28;;;;;;;39.03;23.85;;;;;;;8.78;78.45;100269.59;4207500;82;21030;-81
2021/10/10 09:07:23;;;;;;;47.00;24.15;;;;;;;9.53;77.57;100273.91;4202254;82;21498;-82
2021/10/10 09:13:34;;;;;;;37.88;23.60;;;;;;;10.14;76.17;100260.61;4203847;82;21042;-82
2021/10/10 09:19:37;;;;;;;47.15;22.77;;;;;;;10.79;75.92;100254.84;4206760;82;21562;-81
2021/10/10 09:25:55;;;;;;;43.48;23.80;;;;;;;11.47;75.13;100258.94;4220552;82;21618;-82
2021/10/10 09:32:10;;;;;;;35.92;22.93;;;;;;;11.77;72.76;100250.02;4213224;82;21416;-81
2021/10/10 09:38:23;;;;;;;38.33;23.02;;;;;;;12.18;72.23;100239.86;4211989;82;21080;-82
2021/10/10 09:44:42;;;;;;;38.05;22.52;;;;;;;11.97;72.12;100236.61;4208322;82;21054;-82
2021/10/10 09:50:31;;;;;;;36.20;22.70;;;;;;;11.50;71.37;100236.30;4198377;82;21493;-83
2021/10/10 09:56:34;;;;;;;42.63;23.13;;;;;;;11.30;70.97;100237.32;4206093;82;21534;-83
2021/10/10 10:02:40;;;;;;;37.20;22.10;;;;;;;11.51;70.37;100227.72;4184699;83;22250;-82
2021/10/10 10:08:42;;;;;;;41.08;22.65;;;;;;;11.11;69.52;100222.90;4209880;82;22045;-82
2021/10/10 10:14:44;;;;;;;35.92;22.07;;;;;;;11.25;68.81;100224.66;4211821;82;21005;-83
2021/10/10 10:20:45;;;;;;;39.03;23.07;;;;;;;11.13;68.42;100219.81;4207985;82;21125;-82
2021/10/10 10:26:47;;;;;;;41.23;22.20;;;;;;;11.31;68.29;100219.15;4194722;82;21023;-82
2021/10/10 10:32:53;;;;;;;40.80;22.02;;;;;;;11.68;66.41;100213.70;4204935;82;21412;-81
2021/10/10 10:38:55;;;;;;;38.98;22.22;;;;;;;11.87;66.79;100208.32;4207719;82;21109;-82
2021/10/10 10:44:57;;;;;;;32.05;20.68;;;;;;;11.41;66.23;100200.84;4204300;82;21078;-83
2021/10/10 10:51:26;;;;;;;40.20;21.52;;;;;;;10.88;65.24;100206.19;4202194;82;21097;-82
2021/10/10 10:57:41;;;;;;;38.00;21.65;;;;;;;10.63;65.07;100200.55;4216416;82;21073;-82
2021/10/10 11:03:42;;;;;;;37.08;19.75;;;;;;;10.60;64.60;100183.45;4208417;82;21498;-82
2021/10/10 11:09:45;;;;;;;32.10;18.70;;;;;;;10.85;64.80;100185.56;4216808;82;21589;-81
2021/10/10 11:15:57;;;;;;;34.65;19.32;;;;;;;11.22;64.29;100182.88;4216695;82;21885;-82
2021/10/10 11:22:20;;;;;;;32.15;19.65;;;;;;;11.43;63.06;100177.17;4213287;82;21017;-83
2021/10/10 11:28:19;;;;;;;35.70;18.75;;;;;;;11.38;60.80;100179.61;4204130;82;21113;-83
2021/10/10 11:34:24;;;;;;;32.90;18.35;;;;;;;11.47;61.19;100172.00;4202503;82;21120;-83
2021/10/10 11:40:25;;;;;;;33.15;17.42;;;;;;;11.65;61.69;100177.39;4207199;82;21550;-82
2021/10/10 11:46:55;;;;;;;31.45;17.32;;;;;;;11.77;61.28;100173.20;4225966;82;21090;-82
2021/10/10 11:52:58;;;;;;;34.00;18.35;;;;;;;11.73;60.73;100168.19;4223630;82;21125;-82
2021/10/10 11:59:12;;;;;;;30.60;17.30;;;;;;;11.60;60.92;100174.90;4218548;82;21017;-81
2021/10/10 12:05:23;;;;;;;35.10;19.17;;;;;;;11.50;56.96;100168.55;4208982;82;21042;-82
2021/10/10 12:11:27;;;;;;;35.65;18.82;;;;;;;11.28;59.09;100155.44;4220015;82;21057;-82
2021/10/10 12:17:43;;;;;;;36.45;18.57;;;;;;;11.38;59.78;100154.93;4224492;82;21044;-82
2021/10/10 12:23:44;;;;;;;34.53;18.30;;;;;;;11.43;59.29;100153.88;4221371;82;21081;-82
2021/10/10 12:29:45;;;;;;;30.65;16.27;;;;;;;11.41;58.88;100146.56;4211330;82;21045;-82
2021/10/10 12:36:08;;;;;;;28.87;15.65;;;;;;;11.48;59.31;100137.94;4222970;82;21050;-82
2021/10/10 12:42:10;;;;;;;29.57;16.07;;;;;;;11.60;58.83;100138.44;4195364;82;21065;-81
2021/10/10 12:48:11;;;;;;;31.05;16.67;;;;;;;11.51;56.97;100139.20;4219147;82;21574;-81
2021/10/10 12:54:23;;;;;;;33.15;16.93;;;;;;;11.42;55.66;100142.09;4219562;82;21002;-82
2021/10/10 13:00:26;;;;;;;31.27;16.48;;;;;;;11.45;54.96;100141.98;4214819;82;21097;-82
2021/10/10 13:06:27;;;;;;;28.90;16.57;;;;;;;11.54;54.65;100130.27;4210849;82;21053;-82
2021/10/10 13:12:28;;;;;;;32.20;16.87;;;;;;;11.65;56.00;100118.42;4219049;82;21041;-82
2021/10/10 13:18:30;;;;;;;29.12;15.10;;;;;;;11.76;56.09;100112.61;4228037;82;21558;-82
2021/10/10 13:24:31;;;;;;;24.70;13.28;;;;;;;11.78;56.33;100113.06;4214584;82;21057;-81
2021/10/10 13:30:32;;;;;;;21.95;12.23;;;;;;;11.75;56.09;100109.66;4218359;82;21104;-82
2021/10/10 13:36:36;;;;;;;23.83;12.90;;;;;;;11.67;56.28;100112.02;4220042;82;21069;-83
2021/10/10 13:42:38;;;;;;;28.73;14.47;;;;;;;11.68;56.15;100107.33;4192305;82;21562;-82
2021/10/10 13:48:39;;;;;;;28.50;13.72;;;;;;;11.70;56.08;100103.07;4203461;82;21441;-82
2021/10/10 13:54:41;;;;;;;26.02;13.43;;;;;;;11.69;55.67;100108.34;4204660;82;21638;-82
2021/10/10 14:00:46;;;;;;;25.80;12.35;;;;;;;11.69;56.23;100094.63;4214379;82;21003;-81
2021/10/10 14:06:47;;;;;;;22.65;11.20;;;;;;;11.67;55.49;100089.27;4197862;82;21574;-83
2021/10/10 14:12:49;;;;;;;27.55;12.73;;;;;;;11.62;55.70;100085.41;4202025;82;21018;-82
2021/10/10 14:18:52;;;;;;;26.23;12.33;;;;;;;11.54;55.42;100085.02;4201449;82;21097;-82
2021/10/10 14:24:53;;;;;;;30.17;12.90;;;;;;;11.51;55.09;100081.61;4210718;82;21665;-81
2021/10/10 14:30:54;;;;;;;24.70;12.93;;;;;;;11.54;54.95;100082.27;4204233;82;21078;-83
2021/10/10 14:36:56;;;;;;;28.30;13.83;;;;;;;11.52;54.64;100075.78;4202901;82;21101;-82
2021/10/10 14:43:01;;;;;;;25.95;13.22;;;;;;;11.48;54.31;100071.36;4208692;82;21093;-84
2021/10/10 14:49:01;;;;;;;29.67;13.13;;;;;;;11.34;54.43;100062.19;4199395;82;22239;-83
2021/10/10 14:55:04;;;;;;;25.85;12.43;;;;;;;11.22;54.41;100060.11;4204583;82;21013;-83
2021/10/10 15:01:06;;;;;;;28.32;12.53;;;;;;;11.05;54.24;100060.70;4196075;82;21530;-81
2021/10/10 15:07:09;;;;;;;30.95;13.18;;;;;;;10.89;54.43;100048.92;4209763;82;21140;-82
2021/10/10 15:13:10;;;;;;;28.10;12.43;;;;;;;10.80;54.60;100041.45;4208361;82;21111;-82
2021/10/10 15:19:12;;;;;;;22.85;12.53;;;;;;;10.64;54.55;100039.80;4210367;82;21029;-83
2021/10/10 15:25:13;;;;;;;24.20;12.55;;;;;;;10.52;54.71;100033.80;4220792;82;21617;-82
2021/10/10 15:31:14;;;;;;;28.10;13.30;;;;;;;10.39;55.08;100041.86;4201541;82;21566;-82
2021/10/10 15:37:16;;;;;;;24.35;12.47;;;;;;;10.25;55.44;100040.09;4176319;82;21078;-82
2021/10/10 15:43:17;;;;;;;19.80;11.85;;;;;;;10.11;55.74;100053.92;4143093;82;21060;-82
2021/10/10 15:49:18;;;;;;;26.97;12.13;;;;;;;9.96;55.64;100055.40;4107481;85;21542;-82
2021/10/10 15:55:20;;;;;;;25.08;12.15;;;;;;;9.73;55.65;100054.86;4078241;85;21074;-82
2021/10/10 16:01:22;;;;;;;30.72;15.65;;;;;;;9.53;57.41;100049.77;4038440;85;21177;-83
2021/10/10 16:07:23;;;;;;;36.42;15.95;;;;;;;9.27;57.50;100035.66;4041372;85;21120;-82
2021/10/10 16:13:24;;;;;;;39.75;18.65;;;;;;;9.08;57.97;100041.65;4035598;85;21479;-82
2021/10/10 16:19:25;;;;;;;36.88;15.78;;;;;;;8.89;58.03;100041.97;4031057;85;21156;-82
2021/10/10 16:25:27;;;;;;;26.25;13.65;;;;;;;8.66;58.46;100047.02;4036659;86;21454;-82
2021/10/10 16:31:29;;;;;;;27.25;14.53;;;;;;;8.42;59.81;100049.69;4037471;86;21600;-82
2021/10/10 16:43:31;;;;;;;39.90;18.98;;;;;;;7.81;60.68;100056.69;4034481;85;21072;-82
2021/10/10 16:49:33;;;;;;;33.50;18.73;;;;;;;7.63;60.89;100042.95;4040255;85;21014;-82
2021/10/10 16:55:34;;;;;;;40.85;20.60;;;;;;;7.42;61.62;100038.02;3923468;85;10000449;-81
2021/10/10 17:01:37;;;;;;;59.15;30.62;;;;;;;7.34;62.22;100040.80;4028373;85;21053;-82
2021/10/10 17:07:38;;;;;;;45.25;23.32;;;;;;;7.09;62.48;100030.27;4039690;85;21088;-82
2021/10/10 17:13:42;;;;;;;39.40;22.00;;;;;;;6.87;63.49;100025.06;4037542;85;21013;-82
2021/10/10 17:19:43;;;;;;;57.98;27.48;;;;;;;6.60;64.14;100026.81;4154680;82;21494;-81
2021/10/10 17:25:44;;;;;;;55.80;24.63;;;;;;;6.49;64.20;100032.36;4152198;82;21086;-81
2021/10/10 17:31:48;;;;;;;56.63;29.50;;;;;;;6.44;65.01;100022.22;4155524;82;21018;-82
2021/10/10 17:37:50;;;;;;;55.78;27.95;;;;;;;6.37;65.61;100011.83;4171347;83;21527;-82
2021/10/10 17:43:51;;;;;;;66.07;31.37;;;;;;;6.20;65.83;99996.31;4218628;82;21068;-82
2021/10/10 17:49:52;;;;;;;71.02;36.50;;;;;;;6.10;66.32;100000.75;4217287;82;21070;-83
2021/10/10 17:55:53;;;;;;;62.58;29.65;;;;;;;6.08;67.01;100004.34;4227413;81;28321;-82
2021/10/10 18:14:21;;;;;;;74.20;37.20;;;;;;;5.53;67.98;99994.38;4267284;82;20999;-82
2021/10/10 18:20:25;;;;;;;80.77;38.63;;;;;;;5.49;68.73;99998.28;4268749;82;20991;-81
2021/10/10 18:26:26;;;;;;;59.05;30.75;;;;;;;5.41;68.76;99986.03;4263278;82;20996;-82
2021/10/10 18:32:28;;;;;;;93.37;43.25;;;;;;;5.28;69.51;99989.12;4261954;82;21061;-83
2021/10/10 18:38:29;;;;;;;91.02;40.65;;;;;;;5.27;69.88;99992.97;4265163;82;21059;-81
2021/10/10 18:44:30;;;;;;;110.92;49.30;;;;;;;5.27;70.51;99999.75;4267661;82;21882;-81
2021/10/10 18:50:34;;;;;;;117.87;53.58;;;;;;;5.18;70.60;99994.05;4261863;82;22894;-82
2021/10/10 18:56:35;;;;;;;105.80;50.15;;;;;;;4.92;70.97;99996.67;4149907;82;9999862;-81
2021/10/10 19:02:40;;;;;;;106.17;48.15;;;;;;;4.89;71.62;100001.37;4263024;82;21058;-81
2021/10/10 19:08:41;;;;;;;113.68;53.25;;;;;;;4.97;71.51;99999.80;4266572;82;20960;-82
2021/10/10 19:14:44;;;;;;;111.03;50.50;;;;;;;4.79;71.73;99998.38;4265710;82;21070;-82
2021/10/10 19:20:45;;;;;;;123.15;57.08;;;;;;;4.59;71.77;100002.17;4267894;82;21086;-81
2021/10/10 19:26:46;;;;;;;103.25;50.20;;;;;;;4.40;72.36;99995.62;4267314;82;21024;-81
2021/10/10 19:32:47;;;;;;;121.28;57.93;;;;;;;4.37;72.77;99995.46;4263302;82;21074;-82
2021/10/10 19:38:49;;;;;;;104.17;52.90;;;;;;;4.41;72.95;99994.52;4273744;82;21020;-82
2021/10/10 19:44:50;;;;;;;105.37;50.55;;;;;;;4.29;73.31;99990.78;4264257;82;21023;-81
2021/10/10 19:50:52;;;;;;;97.37;44.58;;;;;;;4.15;73.40;99990.83;4204976;83;22009;-81
2021/10/10 19:56:53;;;;;;;95.15;45.38;;;;;;;4.01;73.98;99993.37;4272384;82;21591;-81
2021/10/10 20:02:55;;;;;;;102.07;48.90;;;;;;;3.92;74.29;99983.01;4263063;82;21060;-81
2021/10/10 20:08:56;;;;;;;96.05;49.45;;;;;;;3.98;74.39;99984.48;4273069;82;21043;-81
2021/10/10 20:14:58;;;;;;;106.30;51.37;;;;;;;3.89;75.06;99980.91;4172268;83;21142;-81
2021/10/10 20:20:59;;;;;;;117.30;55.92;;;;;;;3.93;75.28;99985.41;4144384;84;21095;-81
2021/10/10 20:27:00;;;;;;;106.15;54.18;;;;;;;3.88;75.18;99981.48;4265960;81;21043;-81
2021/10/10 20:33:02;;;;;;;95.28;50.67;;;;;;;3.87;75.42;99984.50;4268873;82;21055;-81
2021/10/10 20:39:03;;;;;;;101.55;53.48;;;;;;;3.84;75.70;99989.96;4263859;82;21027;-82
2021/10/10 20:45:05;;;;;;;115.20;56.75;;;;;;;3.70;75.35;99968.90;4262553;82;21158;-81
2021/10/10 20:51:07;;;;;;;95.75;47.10;;;;;;;3.47;75.65;99966.46;4260985;82;21658;-80
2021/10/10 20:57:09;;;;;;;106.67;54.35;;;;;;;3.42;76.31;99968.73;4257800;82;21860;-81
2021/10/10 21:03:11;;;;;;;101.35;50.38;;;;;;;3.54;76.12;99970.34;4254511;82;21663;-81
2021/10/10 21:09:12;;;;;;;94.87;49.63;;;;;;;3.46;76.46;99954.04;4255375;82;21054;-81
2021/10/10 21:15:13;;;;;;;96.35;47.65;;;;;;;3.20;76.24;99942.42;4259327;82;21543;-80
2021/10/10 21:21:15;;;;;;;99.15;47.10;;;;;;;3.15;77.03;99950.64;4259669;82;21015;-82
2021/10/10 21:27:21;;;;;;;99.35;48.92;;;;;;;3.07;76.62;99931.60;4256591;82;21069;-82
2021/10/10 21:33:36;;;;;;;100.47;51.10;;;;;;;2.98;76.83;99939.64;4258037;82;21088;-81
2021/10/10 21:39:28;;;;;;;105.12;50.25;;;;;;;3.02;77.76;99939.27;4253263;82;21119;-81
2021/10/10 21:45:29;;;;;;;97.95;49.25;;;;;;;3.05;77.67;99932.48;4260417;82;21635;-81
2021/10/10 21:51:31;;;;;;;100.40;51.77;;;;;;;3.02;78.25;99931.16;4254855;82;21091;-81
2021/10/10 21:57:34;;;;;;;97.47;48.35;;;;;;;3.06;78.15;99924.60;4157719;84;21066;-81
2021/10/10 22:03:36;;;;;;;93.03;46.65;;;;;;;2.92;77.25;99914.35;4147544;84;21052;-81
2021/10/10 22:09:38;;;;;;;92.78;48.28;;;;;;;2.62;77.55;99912.26;4258707;82;21559;-81
2021/10/10 22:15:39;;;;;;;93.40;49.40;;;;;;;2.37;78.95;99901.94;4256087;82;21554;-81
2021/10/10 22:21:43;;;;;;;94.58;50.10;;;;;;;2.50;78.88;99905.21;4257891;82;21060;-81
2021/10/10 22:27:54;;;;;;;93.05;45.80;;;;;;;2.48;79.10;99904.16;4254329;82;21058;-80
2021/10/10 22:33:48;;;;;;;89.97;47.58;;;;;;;2.65;79.64;99908.95;4260987;82;21020;-81
2021/10/10 22:39:49;;;;;;;78.10;42.70;;;;;;;2.62;79.34;99904.96;4262672;82;21071;-81
2021/10/10 22:45:50;;;;;;;86.08;43.85;;;;;;;2.57;79.30;99895.59;4270251;82;21071;-81
2021/10/10 22:51:52;;;;;;;83.87;41.55;;;;;;;2.47;79.87;99892.30;4268487;82;21082;-81
2021/10/10 22:57:53;;;;;;;86.97;43.35;;;;;;;2.39;79.72;99874.89;4268878;82;21097;-81
2021/10/10 23:03:55;;;;;;;82.60;42.45;;;;;;;2.35;79.41;99867.11;4270220;82;21035;-81
2021/10/10 23:09:56;;;;;;;81.72;41.53;;;;;;;2.22;79.77;99861.71;4268775;82;21437;-80
2021/10/10 23:15:57;;;;;;;83.40;42.20;;;;;;;2.18;80.31;99863.39;4272828;81;21072;-80
2021/10/10 23:21:58;;;;;;;82.25;41.00;;;;;;;2.45;80.76;99860.70;4268929;82;21027;-81
2021/10/10 23:27:59;;;;;;;74.53;40.70;;;;;;;2.40;80.08;99856.21;4269513;82;21031;-82
2021/10/10 23:34:00;;;;;;;81.40;43.45;;;;;;;2.36;80.73;99850.36;4202622;83;21543;-81
2021/10/10 23:40:03;;;;;;;88.07;42.05;;;;;;;2.41;80.54;99850.27;4274050;82;21131;-81
2021/10/10 23:46:05;;;;;;;76.07;39.63;;;;;;;2.41;80.66;99847.56;4196852;83;21029;-81
2021/10/10 23:52:06;;;;;;;70.15;37.63;;;;;;;2.26;80.70;99853.25;4201808;82;21125;-81
2021/10/10 23:58:07;;;;;;;71.62;39.10;;;;;;;2.37;81.15;99851.41;4270112;82;21126;-81
